Ровеньки

СКИДКИ НА СМАРТФОНЫ!

Карта отелей и гостиниц, располагающихся рядом с аэропортом Ровеньки :

Ровеньки Белгородская область 49° 54' 27.6696" N, 38° 56' 44.7396" E
Код аэродрома ИКАО
ZB8L
Код аэродрома RU
ЗБ8Л
Координаты
N49.90769° E038.94576°
Превышение над уровнем моря
118
Основная полоса
10/28
Курс магнитный
101,9/281,9
Длина основной ВПП
550
Ширина основной ВПП
20
Покрытие основной ВПП
Твёрдое (асфальт)
Освещение ВПП
Нет
Тип: 
Аэродром
Класс аэродрома: 
Принадлежность: 
ГА
Статус: 
Недействующий
Сайт: 
E-mail аэродрома: 
Страна: 
Россия
Регион: 
Белгородская область
Город: 
Дополнительная информация: 
Бывшая площадка АХР.

Скидки на навигаторы!

Найти трансфер

С помощью этой формы Вы можете найти трансфер из аэропорта Ровеньки в город, аэропорт или вокзал:

Погода в аэропортах:

Авиационная погода в Новокузнецке

Регион: 
Погода METAR: 
UNWW 072100Z 11001MPS 3600 BR FU NSC M26/M29 Q1038 R19/420150 NOSIG RMK QFE751
Время наблюдения
2022-12-07T21:00:00Z
Температура C
-26.0
Точка росы
-29.0
Направление ветра
110
Скорость ветра (узлы)
2
Метео видимость
2.24
Облачность
CLR
Нижняя граница облачности (футы)
Явления погоды
BR FU
Условия полета
IFR
Аэропорт подробнее: 
CLR — нет облаков ниже 3000 м
BR – дымка (видимость от 1 до 9 км); FU – дым (видимость менее 10 км);

Авиационная погода в Тулча

Регион: 
Погода METAR: 
LRTC 072100Z AUTO 07001KT 5000 BR BKN009/// 05/02 Q1016
Время наблюдения
2022-12-07T21:00:00Z
Температура C
5.0
Точка росы
2.0
Направление ветра
70
Скорость ветра (узлы)
1
Метео видимость
3.11
Облачность
BKN
Нижняя граница облачности (футы)
900
Явления погоды
BR
Условия полета
IFR
BKN – значительная (рассеянная, разорванная) облачность;
BR – дымка (видимость от 1 до 9 км);

Авиационная погода в Братске

Регион: 
Погода METAR: 
UIBB 072100Z 26005MPS 240V300 8000 -SHSN BKN020CB M14/M17 Q1022 R30/820350 NOSIG RMK QFE723/0964
Время наблюдения
2022-12-07T21:00:00Z
Температура C
-14.0
Точка росы
-17.0
Направление ветра
260
Скорость ветра (узлы)
10
Метео видимость
4.97
Облачность
BKN
Нижняя граница облачности (футы)
2000
Явления погоды
-SHSN
Условия полета
MVFR
Аэропорт подробнее: 
BKN – значительная (рассеянная, разорванная) облачность;
-SHSN - слабый ливневой снег;

Авиационная погода в аэропорту Бесовец

Регион: 
Погода METAR: 
ULPB 072100Z AUTO 14003MPS 070V190 6000 -SN ///016/// M06/M09 Q1012 RMK QFE755/1007
Время наблюдения
2022-12-07T21:00:00Z
Температура C
-6.0
Точка росы
-9.0
Направление ветра
140
Скорость ветра (узлы)
6
Метео видимость
3.73
Облачность
Нижняя граница облачности (футы)
Явления погоды
-SN
Условия полета
Аэропорт подробнее: 
-SN – слабый снег;